createdAt,value
2023-04-20T00:00:22.005Z,96548.88
2023-04-20T00:02:48.499Z,96545.84
2023-04-20T00:05:15.045Z,96542.13
2023-04-20T00:07:41.485Z,96543.34
2023-04-20T00:10:07.899Z,96544.00
2023-04-20T00:12:34.283Z,96536.78
2023-04-20T00:15:00.707Z,96536.56
2023-04-20T00:17:27.150Z,96530.47
2023-04-20T00:19:53.534Z,96533.69
2023-04-20T00:22:19.909Z,96533.19
2023-04-20T00:24:46.324Z,96527.50
2023-04-20T00:27:12.710Z,96526.84
2023-04-20T00:29:41.882Z,96522.53
2023-04-20T00:32:08.280Z,96519.41
2023-04-20T00:34:34.671Z,96520.81
2023-04-20T00:37:01.076Z,96516.28
2023-04-20T00:39:27.456Z,96514.72
2023-04-20T00:41:53.839Z,96506.47
2023-04-20T00:44:20.238Z,96502.19
2023-04-20T00:46:46.623Z,96507.28
2023-04-20T00:49:13.025Z,96502.75
2023-04-20T00:51:39.373Z,96499.75
2023-04-20T00:54:05.739Z,96500.03
2023-04-20T00:56:32.124Z,96493.56
2023-04-20T00:58:58.482Z,96499.84
2023-04-20T01:01:24.905Z,96488.13
2023-04-20T01:03:51.413Z,96495.50
2023-04-20T01:06:17.835Z,96485.16
2023-04-20T01:08:44.215Z,96489.84
2023-04-20T01:11:10.614Z,96482.63
2023-04-20T01:13:37.042Z,96486.63
2023-04-20T01:16:03.598Z,96487.81
2023-04-20T01:18:30.006Z,96471.28
2023-04-20T01:20:56.441Z,96473.53
2023-04-20T01:23:22.905Z,96465.16
2023-04-20T01:25:49.293Z,96458.13
2023-04-20T01:28:15.711Z,96458.78
2023-04-20T01:30:42.150Z,96464.03
2023-04-20T01:33:08.541Z,96453.38
2023-04-20T01:35:34.963Z,96454.00
2023-04-20T01:38:01.341Z,96459.81
2023-04-20T01:40:27.756Z,96449.28
2023-04-20T01:42:54.130Z,96449.53
2023-04-20T01:45:20.505Z,96450.19
2023-04-20T01:47:46.954Z,96452.16
2023-04-20T01:50:13.367Z,96454.28
2023-04-20T01:52:39.785Z,96446.78
2023-04-20T01:55:06.206Z,96444.50
2023-04-20T01:57:32.585Z,96450.84
2023-04-20T01:59:58.969Z,96453.84
2023-04-20T02:02:25.494Z,96445.41
2023-04-20T02:04:51.933Z,96445.16
2023-04-20T02:07:18.351Z,96446.00
2023-04-20T02:09:44.820Z,96441.50
2023-04-20T02:12:11.218Z,96445.31
2023-04-20T02:14:37.719Z,96444.72
2023-04-20T02:17:04.120Z,96437.19
2023-04-20T02:19:30.515Z,96430.72
2023-04-20T02:21:56.884Z,96440.94
2023-04-20T02:24:23.358Z,96435.78
2023-04-20T02:26:49.849Z,96441.25
2023-04-20T02:29:16.403Z,96439.59
2023-04-20T02:31:43.103Z,96440.00
2023-04-20T02:34:09.700Z,96441.88
2023-04-20T02:36:36.115Z,96439.88
2023-04-20T02:39:02.469Z,96435.13
2023-04-20T02:41:28.828Z,96437.50
2023-04-20T02:43:55.232Z,96429.31
2023-04-20T02:46:21.632Z,96430.59
2023-04-20T02:48:48.045Z,96434.41
2023-04-20T02:51:14.451Z,96428.50
2023-04-20T02:53:40.836Z,96432.44
2023-04-20T02:56:07.245Z,96424.47
2023-04-20T02:58:33.672Z,96430.34
2023-04-20T03:01:00.068Z,96427.22
2023-04-20T03:03:26.685Z,96429.53
2023-04-20T03:05:53.291Z,96431.03
2023-04-20T03:08:19.705Z,96430.22
2023-04-20T03:10:46.125Z,96428.69
2023-04-20T03:13:12.533Z,96420.81
2023-04-20T03:15:41.985Z,96417.78
2023-04-20T03:18:08.402Z,96416.50
2023-04-20T03:20:34.849Z,96416.63
2023-04-20T03:23:01.270Z,96416.56
2023-04-20T03:25:27.651Z,96424.75
2023-04-20T03:27:54.037Z,96412.59
2023-04-20T03:30:20.394Z,96407.78
2023-04-20T03:32:46.934Z,96414.09
2023-04-20T03:35:13.384Z,96411.53
2023-04-20T03:37:39.767Z,96409.81
2023-04-20T03:40:06.162Z,96405.72
2023-04-20T03:42:32.563Z,96407.03
2023-04-20T03:44:58.931Z,96403.47
2023-04-20T03:47:25.359Z,96408.13
2023-04-20T03:49:51.769Z,96409.28
2023-04-20T03:52:18.141Z,96411.03
2023-04-20T03:54:44.517Z,96415.00
2023-04-20T03:57:10.911Z,96415.00
2023-04-20T03:59:37.289Z,96416.81
2023-04-20T04:02:03.706Z,96412.75
2023-04-20T04:04:30.620Z,96408.19
2023-04-20T04:06:57.183Z,96402.56
2023-04-20T04:09:23.574Z,96401.38
2023-04-20T04:11:49.968Z,96401.53
2023-04-20T04:14:16.377Z,96403.72
2023-04-20T04:16:42.827Z,96403.78
2023-04-20T04:19:09.357Z,96398.28
2023-04-20T04:21:35.743Z,96400.56
2023-04-20T04:24:02.086Z,96409.91
2023-04-20T04:26:28.861Z,96407.59
2023-04-20T04:28:55.215Z,96407.84
2023-04-20T04:31:21.764Z,96408.38
2023-04-20T04:33:48.411Z,96407.50
2023-04-20T04:36:14.811Z,96406.00
2023-04-20T04:38:41.288Z,96403.34
2023-04-20T04:41:07.700Z,96404.75
2023-04-20T04:43:34.085Z,96409.84
2023-04-20T04:46:00.485Z,96417.78
2023-04-20T04:48:26.886Z,96410.84
2023-04-20T04:50:53.281Z,96410.28
2023-04-20T04:53:19.722Z,96409.19
2023-04-20T04:55:46.115Z,96394.75
2023-04-20T04:58:12.467Z,96401.69
2023-04-20T05:00:38.819Z,96403.34
2023-04-20T05:03:05.369Z,96406.47
2023-04-20T05:05:31.935Z,96410.41
2023-04-20T05:07:58.302Z,96413.97
2023-04-20T05:10:24.723Z,96417.06
2023-04-20T05:12:51.308Z,96399.34
2023-04-20T05:15:17.734Z,96406.28
2023-04-20T05:17:44.157Z,96406.47
2023-04-20T05:20:10.591Z,96396.16
2023-04-20T05:22:36.990Z,96402.91
2023-04-20T05:25:03.398Z,96395.00
2023-04-20T05:27:29.781Z,96391.19
2023-04-20T05:29:59.899Z,96390.81
2023-04-20T05:32:30.392Z,96394.19
2023-04-20T05:34:56.777Z,96392.84
2023-04-20T05:37:23.131Z,96405.16
2023-04-20T05:39:49.530Z,96395.16
2023-04-20T05:42:15.925Z,96389.78
2023-04-20T05:44:42.359Z,96395.06
2023-04-20T05:47:08.801Z,96389.69
2023-04-20T05:49:35.220Z,96378.31
2023-04-20T05:52:01.619Z,96382.84
2023-04-20T05:54:27.970Z,96387.34
2023-04-20T05:56:54.371Z,96393.06
2023-04-20T05:59:20.860Z,96392.34
2023-04-20T06:01:47.296Z,96382.03
2023-04-20T06:04:13.877Z,96380.53
2023-04-20T06:06:40.556Z,96374.13
2023-04-20T06:09:07.194Z,96372.53
2023-04-20T06:11:33.589Z,96374.13
2023-04-20T06:13:59.956Z,96386.09
2023-04-20T06:16:26.567Z,96380.97
2023-04-20T06:18:53.480Z,96388.31
2023-04-20T06:21:19.924Z,96375.91
2023-04-20T06:23:46.373Z,96383.97
2023-04-20T06:26:12.819Z,96381.88
2023-04-20T06:28:39.207Z,96377.84
2023-04-20T06:31:09.239Z,96383.56
2023-04-20T06:33:40.379Z,96386.09
2023-04-20T06:36:06.775Z,96386.84
2023-04-20T06:38:33.183Z,96376.22
2023-04-20T06:40:59.572Z,96373.41
2023-04-20T06:43:25.932Z,96377.34
2023-04-20T06:45:52.287Z,96375.19
2023-04-20T06:48:31.663Z,96376.53
2023-04-20T06:50:58.864Z,96369.44
2023-04-20T06:53:25.299Z,96371.56
2023-04-20T06:55:51.777Z,96374.94
2023-04-20T06:58:18.294Z,96378.22
2023-04-20T07:00:44.836Z,96374.84
2023-04-20T07:03:11.490Z,96362.75
2023-04-20T07:05:38.167Z,96368.72
2023-04-20T07:08:04.606Z,96374.69
2023-04-20T07:10:31.057Z,96381.00
2023-04-20T07:12:57.920Z,96367.91
2023-04-20T07:15:24.626Z,96362.38
2023-04-20T07:17:51.097Z,96373.50
2023-04-20T07:20:17.502Z,96376.28
2023-04-20T07:22:43.987Z,96372.44
2023-04-20T07:25:10.396Z,96370.75
2023-04-20T07:27:36.792Z,96364.78
2023-04-20T07:30:03.226Z,96374.59
2023-04-20T07:32:29.683Z,96373.16
2023-04-20T07:34:56.162Z,96361.88
2023-04-20T07:37:22.575Z,96360.66
2023-04-20T07:39:49.175Z,96370.59
2023-04-20T07:42:15.802Z,96359.28
2023-04-20T07:44:42.222Z,96364.91
2023-04-20T07:47:08.701Z,96369.56
2023-04-20T07:49:35.201Z,96362.91
2023-04-20T07:52:15.024Z,96364.03
2023-04-20T07:54:42.654Z,96358.78
2023-04-20T07:57:12.189Z,96352.38
2023-04-20T07:59:38.653Z,96353.38
2023-04-20T08:02:05.122Z,96348.53
2023-04-20T08:04:36.828Z,96355.78
2023-04-20T08:07:03.427Z,96378.13
2023-04-20T08:09:29.818Z,96382.41
2023-04-20T08:11:56.393Z,96375.88
2023-04-20T08:14:22.804Z,96366.66
2023-04-20T08:16:49.231Z,96356.47
2023-04-20T08:19:15.730Z,96357.72
2023-04-20T08:21:42.133Z,96357.66
2023-04-20T08:24:08.515Z,96372.41
2023-04-20T08:26:34.934Z,96365.16
2023-04-20T08:29:01.358Z,96361.88
2023-04-20T08:31:27.860Z,96350.66
2023-04-20T08:33:54.444Z,96367.78
2023-04-20T08:36:21.101Z,96362.78
2023-04-20T08:38:47.645Z,96349.38
2023-04-20T08:41:14.093Z,96350.91
2023-04-20T08:43:40.601Z,96345.16
2023-04-20T08:46:07.100Z,96340.38
2023-04-20T08:48:34.483Z,96355.38
2023-04-20T08:51:00.989Z,96355.03
2023-04-20T08:53:32.217Z,96368.03
2023-04-20T08:55:58.699Z,96362.94
2023-04-20T08:58:30.521Z,96359.34
2023-04-20T09:00:57.029Z,96363.09
2023-04-20T09:03:23.645Z,96369.53
2023-04-20T09:05:50.406Z,96369.13
2023-04-20T09:08:16.987Z,96369.50
2023-04-20T09:10:43.446Z,96368.97
2023-04-20T09:13:09.974Z,96357.75
2023-04-20T09:15:36.552Z,96351.50
2023-04-20T09:18:03.307Z,96353.44
2023-04-20T09:20:29.863Z,96363.59
2023-04-20T09:22:56.442Z,96363.00
2023-04-20T09:25:23.070Z,96356.03
2023-04-20T09:27:49.635Z,96357.69
2023-04-20T09:30:16.109Z,96358.06
2023-04-20T09:32:43.066Z,96358.53
2023-04-20T09:35:09.638Z,96343.72
2023-04-20T09:37:42.602Z,96346.34
2023-04-20T09:40:09.434Z,96342.00
2023-04-20T09:42:35.924Z,96346.72
2023-04-20T09:45:04.781Z,96340.88
2023-04-20T09:47:31.361Z,96346.13
2023-04-20T09:50:00.029Z,96363.75
2023-04-20T09:52:26.791Z,96353.75
2023-04-20T09:54:53.288Z,96362.25
2023-04-20T09:57:21.880Z,96343.44
2023-04-20T09:59:48.568Z,96350.72
2023-04-20T10:02:15.307Z,96352.94
2023-04-20T10:04:42.275Z,96355.44
2023-04-20T10:07:09.164Z,96356.06
2023-04-20T10:09:35.626Z,96357.19
2023-04-20T10:12:02.110Z,96354.41
2023-04-20T10:14:31.455Z,96349.13
2023-04-20T10:17:00.861Z,96346.13
2023-04-20T10:19:30.623Z,96348.59
2023-04-20T10:21:57.610Z,96366.78
2023-04-20T10:24:26.229Z,96372.47
2023-04-20T10:26:52.814Z,96368.09
2023-04-20T10:29:19.456Z,96360.53
2023-04-20T10:31:46.192Z,96361.63
2023-04-20T10:34:12.694Z,96359.03
2023-04-20T10:36:39.246Z,96366.28
2023-04-20T10:39:05.980Z,96357.59
2023-04-20T10:41:32.513Z,96344.63
2023-04-20T10:43:58.976Z,96347.09
2023-04-20T10:46:25.497Z,96348.84
2023-04-20T10:48:52.005Z,96350.75
2023-04-20T10:51:18.484Z,96350.91
2023-04-20T10:53:45.037Z,96348.63
2023-04-20T10:56:11.864Z,96357.38
2023-04-20T10:58:38.380Z,96344.66
2023-04-20T11:01:04.896Z,96350.72
2023-04-20T11:03:31.530Z,96349.91
2023-04-20T11:05:58.246Z,96345.88
2023-04-20T11:08:24.763Z,96334.78
2023-04-20T11:10:51.281Z,96337.25
2023-04-20T11:13:17.767Z,96342.78
2023-04-20T11:15:44.287Z,96348.78
2023-04-20T11:18:10.940Z,96352.25
2023-04-20T11:20:37.497Z,96351.28
2023-04-20T11:23:04.030Z,96351.53
2023-04-20T11:25:30.527Z,96348.75
2023-04-20T11:27:57.013Z,96354.88
2023-04-20T11:30:23.749Z,96347.06
2023-04-20T11:32:50.264Z,96343.28
2023-04-20T11:35:16.930Z,96339.81
2023-04-20T11:37:43.460Z,96344.44
2023-04-20T11:40:09.977Z,96346.47
2023-04-20T11:42:36.466Z,96348.69
2023-04-20T11:45:02.944Z,96345.00
2023-04-20T11:47:29.450Z,96346.69
2023-04-20T11:49:56.022Z,96345.88
2023-04-20T11:52:22.493Z,96345.47
2023-04-20T11:54:48.985Z,96341.78
2023-04-20T11:57:15.434Z,96335.56
2023-04-20T11:59:41.941Z,96341.28
2023-04-20T12:02:08.464Z,96348.00
2023-04-20T12:04:35.215Z,96354.19
2023-04-20T12:07:01.810Z,96345.84
2023-04-20T12:09:28.338Z,96351.66
2023-04-20T12:11:54.811Z,96358.38
2023-04-20T12:14:21.346Z,96361.66
2023-04-20T12:16:47.863Z,96366.59
2023-04-20T12:19:15.728Z,96370.31
2023-04-20T12:21:42.262Z,96367.97
2023-04-20T12:24:08.729Z,96374.69
2023-04-20T12:26:38.521Z,96368.84
2023-04-20T12:29:05.494Z,96369.94
2023-04-20T12:31:32.095Z,96371.75
2023-04-20T12:33:58.650Z,96371.34
2023-04-20T12:36:25.293Z,96375.81
2023-04-20T12:38:51.736Z,96372.19
2023-04-20T12:41:18.361Z,96374.59
2023-04-20T12:43:44.833Z,96377.41
2023-04-20T12:46:11.393Z,96380.97
2023-04-20T12:48:37.858Z,96390.03
2023-04-20T12:51:04.331Z,96391.88
2023-04-20T12:53:30.879Z,96379.50
2023-04-20T12:56:01.062Z,96384.22
2023-04-20T12:58:28.114Z,96390.53
2023-04-20T13:00:54.649Z,96395.50
2023-04-20T13:03:21.786Z,96392.00
2023-04-20T13:05:48.386Z,96386.72
2023-04-20T13:08:14.846Z,96394.50
2023-04-20T13:10:41.299Z,96386.66
2023-04-20T13:13:08.040Z,96405.09
2023-04-20T13:15:38.924Z,96389.59
2023-04-20T13:18:06.313Z,96398.19
2023-04-20T13:20:32.815Z,96404.09
2023-04-20T13:22:59.284Z,96399.84
2023-04-20T13:25:25.824Z,96403.59
2023-04-20T13:27:52.321Z,96406.44
2023-04-20T13:30:18.777Z,96408.44
2023-04-20T13:32:45.300Z,96407.19
2023-04-20T13:35:11.790Z,96403.03
2023-04-20T13:37:39.210Z,96401.50
2023-04-20T13:40:05.976Z,96399.97
2023-04-20T13:42:32.466Z,96405.97
2023-04-20T13:44:58.910Z,96415.03
2023-04-20T13:47:25.425Z,96417.38
2023-04-20T13:49:51.937Z,96418.03
2023-04-20T13:52:18.416Z,96420.91
2023-04-20T13:54:44.957Z,96413.66
2023-04-20T13:57:11.414Z,96409.06
2023-04-20T13:59:37.963Z,96411.06
2023-04-20T14:02:04.542Z,96415.75
2023-04-20T14:04:31.017Z,96410.53
2023-04-20T14:06:57.430Z,96416.03
2023-04-20T14:09:23.929Z,96410.59
2023-04-20T14:11:54.103Z,96412.03
2023-04-20T14:14:22.303Z,96418.03
2023-04-20T14:16:48.726Z,96414.53
2023-04-20T14:19:15.121Z,96418.84
2023-04-20T14:21:41.509Z,96419.22
2023-04-20T14:24:07.925Z,96414.47
2023-04-20T14:26:34.538Z,96411.31
2023-04-20T14:29:00.962Z,96415.44
2023-04-20T14:31:27.412Z,96412.25
2023-04-20T14:33:53.943Z,96414.44
2023-04-20T14:36:20.555Z,96419.63
2023-04-20T14:38:46.983Z,96410.75
2023-04-20T14:41:13.521Z,96417.44
2023-04-20T14:43:40.191Z,96409.31
2023-04-20T14:46:06.644Z,96407.41
2023-04-20T14:48:33.232Z,96413.63
2023-04-20T14:51:02.684Z,96419.66
2023-04-20T14:53:30.102Z,96405.09
2023-04-20T14:55:57.318Z,96403.34
2023-04-20T15:01:10.234Z,96405.50
2023-04-20T15:03:37.039Z,96402.09
2023-04-20T15:06:07.036Z,96400.81
2023-04-20T15:08:33.572Z,96399.97
2023-04-20T15:11:00.040Z,96402.97
2023-04-20T15:13:26.461Z,96392.28
2023-04-20T15:15:55.091Z,96390.84
2023-04-20T15:18:21.958Z,96393.19
2023-04-20T15:20:48.407Z,96389.03
2023-04-20T15:23:15.084Z,96389.91
2023-04-20T15:25:41.682Z,96396.41
2023-04-20T15:28:16.417Z,96390.78
2023-04-20T15:30:43.147Z,96405.69
2023-04-20T15:33:09.790Z,96410.31
2023-04-20T15:35:36.534Z,96399.84
2023-04-20T15:38:03.127Z,96402.09
2023-04-20T15:40:29.691Z,96399.81
2023-04-20T15:42:56.113Z,96403.34
2023-04-20T15:45:22.584Z,96410.88
2023-04-20T15:47:49.030Z,96400.91
2023-04-20T15:50:15.465Z,96406.41
2023-04-20T15:52:41.955Z,96401.19
2023-04-20T15:55:08.495Z,96405.38
2023-04-20T15:57:34.959Z,96406.38
2023-04-20T16:00:01.391Z,96397.75
2023-04-20T16:02:27.995Z,96396.88
2023-04-20T16:04:54.695Z,96394.25
2023-04-20T16:07:21.487Z,96395.75
2023-04-20T16:09:48.046Z,96398.78
2023-04-20T16:12:14.549Z,96397.53
2023-04-20T16:14:41.108Z,96394.06
2023-04-20T16:17:07.676Z,96392.00
2023-04-20T16:19:34.202Z,96395.88
2023-04-20T16:22:02.077Z,96395.91
2023-04-20T16:24:29.218Z,96393.94
2023-04-20T16:26:59.490Z,96395.28
2023-04-20T16:29:31.308Z,96399.97
2023-04-20T16:31:58.042Z,96399.50
2023-04-20T16:34:26.890Z,96396.91
2023-04-20T16:36:54.345Z,96399.13
2023-04-20T16:39:24.398Z,96388.81
2023-04-20T16:41:51.183Z,96396.22
2023-04-20T16:44:18.131Z,96402.84
2023-04-20T16:46:45.148Z,96396.94
2023-04-20T16:49:11.616Z,96394.25
2023-04-20T16:51:38.036Z,96388.00
2023-04-20T16:54:04.712Z,96394.88
2023-04-20T16:56:31.173Z,96399.66
2023-04-20T16:59:00.820Z,96396.03
2023-04-20T17:01:27.369Z,96398.22
2023-04-20T17:03:53.987Z,96401.84
2023-04-20T17:06:20.584Z,96396.50
2023-04-20T17:08:47.067Z,96398.22
2023-04-20T17:11:13.601Z,96391.00
2023-04-20T17:13:43.209Z,96391.94
2023-04-20T17:16:10.883Z,96395.19
2023-04-20T17:18:38.018Z,96392.72
2023-04-20T17:21:11.664Z,96399.44
2023-04-20T17:23:38.212Z,96396.38
2023-04-20T17:26:04.603Z,96400.41
2023-04-20T17:28:31.495Z,96394.03
2023-04-20T17:30:58.915Z,96399.53
2023-04-20T17:33:31.627Z,96400.91
2023-04-20T17:36:01.589Z,96388.88
2023-04-20T17:38:28.044Z,96389.13
2023-04-20T17:40:54.761Z,96388.16
2023-04-20T17:43:21.638Z,96399.13
2023-04-20T17:45:48.186Z,96388.16
2023-04-20T17:48:17.134Z,96395.97
2023-04-20T17:50:50.578Z,96399.13
2023-04-20T17:53:24.010Z,96407.84
2023-04-20T17:55:57.138Z,96403.31
2023-04-20T17:58:26.771Z,96402.66
2023-04-20T18:00:56.640Z,96403.22
2023-04-20T18:03:25.655Z,96399.53
2023-04-20T18:05:54.200Z,96404.56
2023-04-20T18:08:21.270Z,96409.38
2023-04-20T18:10:50.789Z,96403.06
2023-04-20T18:13:17.342Z,96401.72
2023-04-20T18:15:43.904Z,96407.53
2023-04-20T18:18:19.910Z,96397.19
2023-04-20T18:20:48.760Z,96405.22
2023-04-20T18:23:24.724Z,96401.00
2023-04-20T18:25:53.658Z,96398.59
2023-04-20T18:28:21.903Z,96403.06
2023-04-20T18:30:51.480Z,96406.41
2023-04-20T18:33:18.007Z,96399.59
2023-04-20T18:35:46.943Z,96397.06
2023-04-20T18:38:13.343Z,96403.72
2023-04-20T18:40:45.051Z,96404.91
2023-04-20T18:43:11.761Z,96408.56
2023-04-20T18:45:38.447Z,96412.13
2023-04-20T18:48:04.957Z,96410.69
2023-04-20T18:50:31.707Z,96412.28
2023-04-20T18:52:58.056Z,96421.25
2023-04-20T18:55:24.498Z,96422.38
2023-04-20T18:57:51.050Z,96417.94
2023-04-20T19:00:19.415Z,96427.22
2023-04-20T19:02:46.301Z,96443.97
2023-04-20T19:05:14.824Z,96437.78
2023-04-20T19:07:41.289Z,96436.13
2023-04-20T19:10:07.977Z,96435.09
2023-04-20T19:12:34.465Z,96444.31
2023-04-20T19:15:08.159Z,96445.25
2023-04-20T19:17:35.812Z,96448.81
2023-04-20T19:20:02.612Z,96450.59
2023-04-20T19:22:31.587Z,96449.47
2023-04-20T19:24:58.113Z,96456.00
2023-04-20T19:27:24.661Z,96452.56
2023-04-20T19:29:51.260Z,96446.56
2023-04-20T19:32:18.074Z,96447.16
2023-04-20T19:34:44.578Z,96449.81
2023-04-20T19:37:13.833Z,96446.06
2023-04-20T19:39:43.698Z,96439.19
2023-04-20T19:42:10.464Z,96437.41
2023-04-20T19:44:37.635Z,96441.41
2023-04-20T19:47:04.212Z,96429.44
2023-04-20T19:49:30.860Z,96434.22
2023-04-20T19:52:04.189Z,96434.63
2023-04-20T19:54:34.177Z,96422.22
2023-04-20T19:57:00.893Z,96428.63
2023-04-20T19:59:27.548Z,96424.38
2023-04-20T20:01:54.241Z,96424.63
2023-04-20T20:04:23.748Z,96440.09
2023-04-20T20:06:50.516Z,96434.78
2023-04-20T20:09:17.263Z,96442.03
2023-04-20T20:14:37.135Z,96438.47
2023-04-20T20:17:04.615Z,96435.50
2023-04-20T20:19:37.212Z,96437.03
2023-04-20T20:22:04.031Z,96437.44
2023-04-20T20:24:33.038Z,96434.38
2023-04-20T20:27:03.393Z,96438.28
2023-04-20T20:29:33.062Z,96433.19
2023-04-20T20:31:59.735Z,96425.94
2023-04-20T20:34:29.501Z,96433.03
2023-04-20T20:37:08.093Z,96429.06
2023-04-20T20:39:35.167Z,96431.19
2023-04-20T20:42:06.414Z,96428.81
2023-04-20T20:44:35.376Z,96430.38
2023-04-20T20:47:02.392Z,96435.53
2023-04-20T20:49:30.037Z,96427.84
2023-04-20T20:54:36.792Z,96438.41
2023-04-20T20:57:11.821Z,96425.97
2023-04-20T20:59:38.585Z,96433.31
2023-04-20T21:02:05.242Z,96430.31
2023-04-20T21:04:36.606Z,96430.88
2023-04-20T21:07:06.035Z,96430.81
2023-04-20T21:09:33.044Z,96429.22
2023-04-20T21:12:09.060Z,96437.00
2023-04-20T21:14:35.732Z,96440.31
2023-04-20T21:17:02.574Z,96434.56
2023-04-20T21:19:34.107Z,96439.25
2023-04-20T21:22:00.930Z,96435.53
2023-04-20T21:24:27.889Z,96434.09
2023-04-20T21:26:57.477Z,96432.34
2023-04-20T21:29:24.213Z,96431.97
2023-04-20T21:31:53.873Z,96436.28
2023-04-20T21:34:20.317Z,96429.22
2023-04-20T21:36:58.757Z,96431.19
2023-04-20T21:39:25.708Z,96432.66
2023-04-20T21:41:55.339Z,96430.13
2023-04-20T21:44:25.092Z,96437.41
2023-04-20T21:46:54.524Z,96441.78
2023-04-20T21:49:23.126Z,96437.03
2023-04-20T21:51:50.777Z,96436.28
2023-04-20T21:54:26.446Z,96434.72
2023-04-20T21:56:53.104Z,96435.25
2023-04-20T21:59:20.257Z,96432.94
2023-04-20T22:04:33.442Z,96436.19
2023-04-20T22:07:03.097Z,96434.47
2023-04-20T22:09:32.661Z,96439.25
2023-04-20T22:12:05.792Z,96445.53
2023-04-20T22:14:32.758Z,96437.19
2023-04-20T22:17:00.008Z,96441.03
2023-04-20T22:19:26.676Z,96440.63
2023-04-20T22:21:54.871Z,96434.44
2023-04-20T22:24:27.855Z,96433.63
2023-04-20T22:26:56.332Z,96440.75
2023-04-20T22:29:23.204Z,96446.13
2023-04-20T22:31:57.632Z,96442.88
2023-04-20T22:34:24.055Z,96445.28
2023-04-20T22:36:53.589Z,96434.34
2023-04-20T22:39:20.250Z,96438.13
2023-04-20T22:41:51.795Z,96440.72
2023-04-20T22:44:18.219Z,96439.41
2023-04-20T22:46:44.649Z,96440.50
2023-04-20T22:49:11.032Z,96440.88
2023-04-20T22:51:37.467Z,96438.88
2023-04-20T22:54:03.865Z,96441.41
2023-04-20T22:56:36.524Z,96446.28
2023-04-20T22:59:03.932Z,96435.97
2023-04-20T23:01:30.377Z,96433.31
2023-04-20T23:04:06.648Z,96437.94
2023-04-20T23:06:33.221Z,96431.53
2023-04-20T23:08:59.632Z,96431.13
2023-04-20T23:11:29.308Z,96424.84
2023-04-20T23:13:55.697Z,96436.88
2023-04-20T23:16:22.143Z,96427.19
2023-04-20T23:18:54.262Z,96437.03
2023-04-20T23:21:20.630Z,96428.44
2023-04-20T23:23:51.657Z,96432.72
2023-04-20T23:26:21.246Z,96427.56
2023-04-20T23:28:47.667Z,96432.72
2023-04-20T23:31:14.094Z,96437.25
2023-04-20T23:33:40.553Z,96426.66
2023-04-20T23:36:07.113Z,96438.09
2023-04-20T23:38:33.536Z,96431.81
2023-04-20T23:40:59.903Z,96432.78
2023-04-20T23:43:32.491Z,96427.09
2023-04-20T23:45:59.026Z,96427.09
2023-04-20T23:48:31.359Z,96427.91
2023-04-20T23:50:57.731Z,96435.88
2023-04-20T23:53:33.164Z,96428.00
2023-04-20T23:55:59.552Z,96427.50
2023-04-20T23:58:30.750Z,96422.56
